Time;durP1;ratioP1;P1;durP2;ratioP2;P2;SDS_P1;SDS_P2;PMS_P1;PMS_P2;Temp;Humidity;BMP_temperature;BMP_pressure;BME280_temperature;BME280_humidity;BME280_pressure;Samples;Min_cycle;Max_cycle;Signal;HPM_P1;HPM_P2
2023/03/15 00:00:13;;;;;;;8.45;1.45;;;2.80;99.90;;;;;;6127466;23;20041;-85
2023/03/15 00:02:38;;;;;;;6.97;1.25;;;2.90;99.90;;;;;;6104265;23;20510;-85
2023/03/15 00:05:04;;;;;;;10.13;1.42;;;2.90;99.90;;;;;;6128216;23;20096;-85
2023/03/15 00:07:31;;;;;;;8.75;1.23;;;2.90;99.90;;;;;;6104198;23;20461;-87
2023/03/15 00:09:57;;;;;;;11.32;1.70;;;2.90;99.90;;;;;;6104042;23;20017;-85
2023/03/15 00:12:22;;;;;;;9.80;1.10;;;2.90;99.90;;;;;;6154440;23;20071;-85
2023/03/15 00:14:49;;;;;;;7.90;1.08;;;2.90;99.90;;;;;;6103998;23;20011;-86
2023/03/15 00:17:15;;;;;;;6.63;0.98;;;2.90;99.90;;;;;;6103456;23;20462;-84
2023/03/15 00:19:40;;;;;;;8.15;1.23;;;2.90;99.90;;;;;;6104027;23;20013;-85
2023/03/15 00:22:06;;;;;;;7.38;1.35;;;2.90;99.90;;;;;;6128450;23;20104;-85
2023/03/15 00:24:32;;;;;;;8.45;1.23;;;2.90;99.90;;;;;;6127705;23;20013;-86
2023/03/15 00:26:57;;;;;;;17.42;1.77;;;3.80;99.90;;;;;;6104285;23;20017;-85
2023/03/15 00:29:23;;;;;;;8.43;1.13;;;3.00;99.90;;;;;;6103979;23;20033;-85
2023/03/15 00:31:50;;;;;;;10.23;1.40;;;4.10;99.90;;;;;;6103646;23;20020;-86
2023/03/15 00:34:17;;;;;;;6.15;0.88;;;3.00;99.90;;;;;;6128119;23;20017;-88
2023/03/15 00:36:44;;;;;;;11.45;1.15;;;2.90;99.90;;;;;;6128452;23;20010;-87
2023/03/15 00:39:09;;;;;;;8.52;1.10;;;2.90;99.90;;;;;;6127460;23;20064;-87
2023/03/15 00:41:35;;;;;;;13.38;1.48;;;2.80;99.90;;;;;;6126552;23;20462;-86
2023/03/15 00:44:03;;;;;;;7.00;0.98;;;2.80;99.90;;;;;;6103045;23;20012;-87
2023/03/15 00:46:28;;;;;;;8.75;0.70;;;2.80;99.90;;;;;;6103707;23;20021;-86
2023/03/15 00:48:54;;;;;;;10.32;0.73;;;2.70;99.90;;;;;;6103075;23;20009;-85
2023/03/15 00:51:22;;;;;;;11.00;2.00;;;2.70;99.90;;;;;;6130273;23;20461;-87
2023/03/15 00:53:50;;;;;;;7.35;0.65;;;2.70;99.90;;;;;;6127396;23;20018;-87
2023/03/15 00:56:21;;;;;;;8.20;1.23;;;2.70;99.90;;;;;;6102813;23;20017;-86
2023/03/15 00:58:47;;;;;;;6.03;0.95;;;2.70;99.90;;;;;;6103608;23;20070;-86
2023/03/15 01:01:24;;;;;;;11.00;1.48;;;2.70;99.90;;;;;;6127658;23;20017;-86
2023/03/15 01:03:50;;;;;;;8.95;0.93;;;2.70;99.90;;;;;;6103204;23;20028;-86
2023/03/15 01:06:19;;;;;;;7.32;0.98;;;2.70;99.90;;;;;;6102873;23;20021;-86
2023/03/15 01:08:45;;;;;;;3.38;0.60;;;2.70;99.90;;;;;;6102567;23;20022;-86
2023/03/15 01:11:13;;;;;;;3.95;0.85;;;2.70;99.90;;;;;;6103137;23;20512;-86
2023/03/15 01:13:39;;;;;;;9.82;1.38;;;2.70;99.90;;;;;;6127146;23;20457;-87
2023/03/15 01:16:06;;;;;;;10.90;1.00;;;2.70;99.90;;;;;;6127862;23;20097;-88
2023/03/15 01:18:32;;;;;;;6.45;0.65;;;2.70;99.90;;;;;;6102920;23;20005;-86
2023/03/15 01:20:58;;;;;;;7.65;1.02;;;2.60;99.90;;;;;;6127513;23;20041;-86
2023/03/15 01:23:24;;;;;;;10.02;1.13;;;2.90;99.90;;;;;;6102547;23;20040;-87
2023/03/15 01:25:50;;;;;;;8.15;1.17;;;2.60;99.90;;;;;;6103518;23;20014;-87
2023/03/15 01:28:15;;;;;;;9.65;2.13;;;2.60;99.90;;;;;;6104318;23;20029;-86
2023/03/15 01:30:48;;;;;;;7.88;1.27;;;2.60;99.90;;;;;;6127137;23;20017;-86
2023/03/15 01:33:14;;;;;;;5.07;1.10;;;2.60;99.90;;;;;;6127262;23;20020;-88
2023/03/15 01:35:39;;;;;;;6.55;0.65;;;2.50;99.90;;;;;;6102766;23;20005;-87
2023/03/15 01:38:05;;;;;;;8.55;0.80;;;2.50;99.90;;;;;;6103539;23;20013;-86
2023/03/15 01:40:30;;;;;;;6.50;0.95;;;2.40;99.90;;;;;;6102428;23;20413;-87
2023/03/15 01:43:02;;;;;;;7.10;0.57;;;2.40;99.90;;;;;;6128074;23;20009;-88
2023/03/15 01:45:56;;;;;;;10.90;1.45;;;2.40;99.90;;;;;;6102961;23;20144;-87
2023/03/15 01:48:26;;;;;;;10.85;1.08;;;2.40;99.90;;;;;;6103325;23;20429;-86
2023/03/15 01:50:54;;;;;;;9.57;0.55;;;2.30;99.90;;;;;;6127544;23;20140;-86
2023/03/15 01:53:21;;;;;;;8.75;0.80;;;2.30;99.90;;;;;;6103321;23;20089;-86
2023/03/15 01:55:47;;;;;;;5.78;0.85;;;2.30;99.90;;;;;;6129438;23;20017;-86
2023/03/15 01:58:13;;;;;;;7.28;0.43;;;2.30;99.90;;;;;;6129090;23;20005;-87
2023/03/15 02:00:39;;;;;;;9.07;1.52;;;2.30;99.90;;;;;;6128539;23;20016;-86
2023/03/15 02:03:13;;;;;;;6.75;0.63;;;2.40;99.90;;;;;;6129528;23;20466;-87
2023/03/15 02:05:45;;;;;;;4.18;0.63;;;2.30;99.90;;;;;;6105534;23;20017;-86
2023/03/15 02:08:14;;;;;;;5.13;0.60;;;2.30;99.90;;;;;;6105361;23;20056;-86
2023/03/15 02:10:46;;;;;;;6.10;0.65;;;2.30;99.90;;;;;;6104213;23;20020;-87
2023/03/15 02:13:16;;;;;;;8.93;0.57;;;2.30;99.90;;;;;;6103472;23;20018;-86
2023/03/15 02:15:45;;;;;;;7.30;0.70;;;2.30;99.90;;;;;;6128661;23;20635;-86
2023/03/15 02:18:12;;;;;;;3.92;0.52;;;2.30;99.90;;;;;;6128181;23;20021;-85
2023/03/15 02:20:43;;;;;;;9.55;1.00;;;2.30;99.90;;;;;;6128509;23;20041;-86
2023/03/15 02:23:16;;;;;;;5.93;1.65;;;2.20;99.90;;;;;;6128498;23;20025;-87
2023/03/15 02:25:59;;;;;;;11.68;1.33;;;2.20;99.90;;;;;;6104630;23;20028;-86
2023/03/15 02:28:25;;;;;;;8.70;0.90;;;2.20;99.90;;;;;;6104387;23;20017;-86
2023/03/15 02:30:51;;;;;;;7.00;0.90;;;2.20;99.90;;;;;;6128371;23;20059;-86
2023/03/15 02:33:35;;;;;;;7.05;1.77;;;2.20;99.90;;;;;;6128675;23;20064;-86
2023/03/15 02:36:30;;;;;;;8.10;1.10;;;2.20;99.90;;;;;;6128360;23;20088;-87
2023/03/15 02:38:57;;;;;;;5.13;1.10;;;3.30;99.90;;;;;;6104498;23;20014;-87
2023/03/15 02:41:32;;;;;;;10.57;0.88;;;2.20;99.90;;;;;;6104674;23;20093;-86
2023/03/15 02:44:03;;;;;;;7.28;1.10;;;2.10;99.90;;;;;;6128120;23;20393;-85
2023/03/15 02:46:28;;;;;;;7.95;0.93;;;2.70;99.90;;;;;;6128034;23;20739;-87
2023/03/15 02:48:54;;;;;;;6.50;0.60;;;2.10;99.90;;;;;;6128837;23;20017;-87
2023/03/15 02:51:23;;;;;;;4.90;0.60;;;2.00;99.90;;;;;;6104073;23;20014;-86
2023/03/15 02:53:48;;;;;;;6.43;0.75;;;2.00;99.90;;;;;;6128561;23;20014;-87
2023/03/15 02:56:14;;;;;;;7.78;1.02;;;2.00;99.90;;;;;;6128679;23;20454;-86
2023/03/15 02:58:41;;;;;;;5.85;0.75;;;2.00;99.90;;;;;;6104384;23;20072;-86
2023/03/15 03:01:07;;;;;;;9.90;1.00;;;2.00;99.90;;;;;;6124938;23;20564;-85
2023/03/15 03:03:33;;;;;;;8.30;1.17;;;1.90;99.90;;;;;;6125995;23;20072;-85
2023/03/15 03:05:58;;;;;;;8.68;0.90;;;1.90;99.90;;;;;;6125184;23;20025;-85
2023/03/15 03:08:24;;;;;;;13.00;0.98;;;1.90;99.90;;;;;;6104067;23;20018;-85
2023/03/15 03:10:49;;;;;;;9.32;0.88;;;2.60;99.90;;;;;;6155526;23;20010;-86
2023/03/15 03:13:15;;;;;;;9.10;0.95;;;1.80;99.90;;;;;;6129320;23;20021;-85
2023/03/15 03:15:44;;;;;;;8.38;0.60;;;1.70;99.90;;;;;;6128923;23;20016;-85
2023/03/15 03:18:09;;;;;;;6.93;1.08;;;1.80;99.90;;;;;;6127915;23;20016;-87
2023/03/15 03:20:35;;;;;;;7.75;0.80;;;1.70;99.90;;;;;;6128714;23;20434;-84
2023/03/15 03:23:04;;;;;;;5.95;0.60;;;1.70;99.90;;;;;;6155017;23;20312;-85
2023/03/15 03:25:31;;;;;;;6.13;0.68;;;1.60;99.90;;;;;;6128807;23;20017;-85
2023/03/15 03:27:58;;;;;;;8.23;1.27;;;1.60;99.90;;;;;;6128261;23;20017;-85
2023/03/15 03:30:24;;;;;;;8.00;0.95;;;1.90;99.90;;;;;;6129372;23;20323;-85
2023/03/15 03:32:49;;;;;;;6.40;0.95;;;2.50;99.90;;;;;;6104623;23;20020;-85
2023/03/15 03:35:15;;;;;;;9.52;1.10;;;1.70;99.90;;;;;;6104208;23;20013;-85
2023/03/15 03:37:41;;;;;;;8.23;0.70;;;1.60;99.90;;;;;;6104151;23;20031;-85
2023/03/15 03:40:08;;;;;;;3.47;1.27;;;1.50;99.90;;;;;;6104713;23;20032;-86
2023/03/15 03:42:37;;;;;;;7.68;1.15;;;1.50;99.90;;;;;;6129643;23;20017;-85
2023/03/15 03:45:03;;;;;;;8.15;0.80;;;1.50;99.90;;;;;;6104594;23;20096;-86
2023/03/15 03:47:28;;;;;;;2.45;0.60;;;1.40;99.90;;;;;;6128714;23;20828;-85
2023/03/15 03:49:54;;;;;;;9.90;1.23;;;1.40;99.90;;;;;;6128889;23;20037;-85
2023/03/15 03:52:20;;;;;;;8.00;0.90;;;1.40;99.90;;;;;;6105522;23;20068;-85
2023/03/15 03:54:45;;;;;;;3.25;0.38;;;1.40;99.90;;;;;;6130019;23;20063;-85
2023/03/15 03:57:11;;;;;;;5.60;1.55;;;1.30;99.90;;;;;;6104678;23;20017;-86
2023/03/15 03:59:36;;;;;;;4.07;0.60;;;1.30;99.90;;;;;;6104308;23;20016;-85
2023/03/15 04:02:02;;;;;;;6.25;0.57;;;1.30;99.90;;;;;;6128497;23;20096;-85
2023/03/15 04:04:28;;;;;;;7.35;0.90;;;1.30;99.90;;;;;;6103667;23;20010;-85
2023/03/15 04:06:53;;;;;;;4.85;0.60;;;1.30;99.90;;;;;;6102891;23;20462;-86
2023/03/15 04:09:20;;;;;;;7.40;0.80;;;1.30;99.90;;;;;;6151857;23;20068;-86
2023/03/15 04:11:46;;;;;;;8.82;1.15;;;1.30;99.90;;;;;;6123679;23;20018;-87
2023/03/15 04:14:13;;;;;;;8.52;1.95;;;1.30;99.90;;;;;;6100278;23;20096;-86
2023/03/15 04:16:39;;;;;;;7.93;0.82;;;1.30;99.90;;;;;;6150558;23;20013;-86
2023/03/15 04:19:06;;;;;;;3.20;0.50;;;1.30;99.90;;;;;;6151185;23;20060;-86
2023/03/15 04:21:33;;;;;;;5.55;0.73;;;1.30;99.90;;;;;;6150178;23;20017;-85
2023/03/15 04:23:59;;;;;;;5.97;1.55;;;1.30;99.90;;;;;;6151439;23;20095;-83
2023/03/15 04:26:26;;;;;;;8.20;0.60;;;1.30;99.90;;;;;;6123170;23;20020;-86
2023/03/15 04:28:56;;;;;;;4.80;0.50;;;2.00;99.90;;;;;;6150783;23;20013;-85
2023/03/15 04:31:25;;;;;;;9.85;0.90;;;1.30;99.90;;;;;;6098489;23;20052;-86
2023/03/15 04:33:54;;;;;;;7.18;1.45;;;1.30;99.90;;;;;;6100640;23;20025;-86
2023/03/15 04:36:21;;;;;;;4.80;0.70;;;1.20;99.90;;;;;;6150852;23;20016;-86
2023/03/15 04:38:47;;;;;;;4.65;0.68;;;1.20;99.90;;;;;;6125682;23;20017;-85
2023/03/15 04:41:14;;;;;;;8.73;0.73;;;1.20;99.90;;;;;;6150892;23;20009;-86
2023/03/15 04:43:40;;;;;;;7.32;0.75;;;2.30;99.90;;;;;;6100386;23;20443;-86
2023/03/15 04:46:07;;;;;;;6.78;0.70;;;1.10;99.90;;;;;;6127121;23;20035;-86
2023/03/15 04:48:32;;;;;;;4.90;0.55;;;1.20;99.90;;;;;;6126607;23;20080;-86
2023/03/15 04:50:58;;;;;;;7.00;0.60;;;1.10;99.90;;;;;;6127230;23;20022;-86
2023/03/15 04:53:24;;;;;;;8.32;0.68;;;1.40;99.90;;;;;;6126919;23;20096;-86
2023/03/15 04:55:49;;;;;;;5.15;0.65;;;1.90;99.90;;;;;;6103387;23;20327;-87
2023/03/15 04:58:16;;;;;;;3.28;1.02;;;1.20;99.90;;;;;;6127475;23;20020;-87
2023/03/15 05:00:42;;;;;;;6.30;1.08;;;1.10;99.90;;;;;;6126700;23;20010;-86
2023/03/15 05:03:07;;;;;;;6.22;0.68;;;1.10;99.90;;;;;;6126824;23;20480;-87
2023/03/15 05:05:33;;;;;;;8.40;0.75;;;1.00;99.90;;;;;;6103696;23;20370;-86
2023/03/15 05:07:59;;;;;;;5.82;0.65;;;1.00;99.90;;;;;;6129853;23;20020;-85
2023/03/15 05:10:25;;;;;;;8.77;1.55;;;1.00;99.90;;;;;;6126903;23;20026;-85
2023/03/15 05:12:51;;;;;;;6.68;0.60;;;2.10;99.90;;;;;;6127373;23;20021;-85
2023/03/15 05:15:19;;;;;;;6.65;1.40;;;1.00;99.90;;;;;;6126337;23;20088;-86
2023/03/15 05:17:57;;;;;;;6.05;0.80;;;1.00;99.90;;;;;;6103646;23;20024;-86
2023/03/15 05:20:24;;;;;;;9.40;0.70;;;1.00;99.90;;;;;;6128261;23;20020;-86
2023/03/15 05:22:53;;;;;;;5.22;0.52;;;1.00;99.90;;;;;;6127103;23;20014;-88
2023/03/15 05:25:19;;;;;;;10.18;1.70;;;1.00;99.90;;;;;;6127415;23;20350;-89
2023/03/15 05:28:17;;;;;;;2.80;0.60;;;2.10;99.90;;;;;;6127055;23;20066;-87
2023/03/15 05:31:23;;;;;;;9.35;1.00;;;1.10;99.90;;;;;;6129352;23;20096;-87
2023/03/15 05:33:53;;;;;;;9.10;0.77;;;0.90;99.90;;;;;;6128194;23;20017;-86
2023/03/15 05:36:32;;;;;;;4.78;1.17;;;1.10;99.90;;;;;;6102498;23;20304;-86
2023/03/15 05:42:00;;;;;;;6.78;1.15;;;1.70;99.90;;;;;;6128366;23;20014;-87
2023/03/15 05:45:18;;;;;;;5.63;1.00;;;1.20;99.90;;;;;;6126940;23;20338;-86
2023/03/15 05:48:26;;;;;;;6.43;0.45;;;0.70;99.90;;;;;;6103154;23;20093;-89
2023/03/15 05:51:49;;;;;;;6.40;0.52;;;1.30;99.90;;;;;;5978611;23;20076;-88
2023/03/15 05:54:14;;;;;;;6.00;0.60;;;1.40;99.90;;;;;;5981141;23;20054;-85
2023/03/15 05:56:42;;;;;;;8.65;0.75;;;1.40;99.90;;;;;;6097075;23;20017;-86
2023/03/15 05:59:10;;;;;;;4.00;0.55;;;1.40;99.90;;;;;;6104512;23;20024;-86
2023/03/15 06:02:03;;;;;;;3.90;0.50;;;1.40;99.90;;;;;;6103708;23;20025;-90
2023/03/15 06:08:51;;;;;;;8.35;0.60;;;1.60;99.90;;;;;;6153661;23;20016;-87
2023/03/15 06:15:38;;;;;;;5.22;0.40;;;2.00;99.90;;;;;;6152137;23;20113;-87
2023/03/15 06:18:44;;;;;;;4.17;0.60;;;1.80;99.90;;;;;;6126457;23;20017;-89
2023/03/15 06:22:34;;;;;;;4.15;1.25;;;1.80;99.90;;;;;;6032640;23;20051;-87
2023/03/15 06:26:09;;;;;;;5.55;0.68;;;1.70;99.90;;;;;;6045860;23;20076;-88
2023/03/15 06:28:37;;;;;;;;;;;1.70;99.90;;;;;;6092450;23;20018;-88
2023/03/15 07:19:21;;;;;;;5.45;1.00;;;10.20;99.90;;;;;;6034457;23;20094;-90
2023/03/15 07:22:25;;;;;;;4.25;0.93;;;11.10;99.90;;;;;;6011170;23;20031;-89
2023/03/15 07:36:10;;;;;;;4.63;0.75;;;11.80;99.90;;;;;;6154723;23;20024;-88
2023/03/15 09:50:31;;;;;;;3.45;0.75;;;9.20;99.90;;;;;;6155132;23;20071;-90
2023/03/15 09:54:00;;;;;;;6.13;1.08;;;9.30;99.90;;;;;;6103980;23;20010;-87
2023/03/15 09:56:53;;;;;;;7.40;0.95;;;9.50;99.90;;;;;;6104008;23;20013;-88
2023/03/15 09:59:43;;;;;;;9.63;0.80;;;10.50;99.90;;;;;;6125165;23;20092;-88
2023/03/15 10:03:08;;;;;;;5.05;0.77;;;9.90;99.90;;;;;;6129322;23;20035;-88
2023/03/15 10:06:07;;;;;;;8.35;1.05;;;10.20;99.90;;;;;;6065001;23;20013;-87
2023/03/15 10:09:50;;;;;;;7.82;1.63;;;10.30;99.90;;;;;;6108107;23;20473;-89
2023/03/15 11:51:43;;;;;;;4.15;0.80;;;12.50;99.90;;;;;;6152429;23;20072;-88
2023/03/15 11:58:28;;;;;;;5.18;0.77;;;11.90;99.90;;;;;;6121414;23;20013;-86
2023/03/15 12:01:26;;;;;;;3.90;0.75;;;11.40;99.90;;;;;;6098228;23;20018;-86
2023/03/15 12:04:23;;;;;;;5.90;1.00;;;11.30;99.90;;;;;;6097200;23;20096;-86
2023/03/15 12:07:31;;;;;;;6.20;0.88;;;11.10;99.90;;;;;;6098582;23;20018;-86
2023/03/15 12:10:30;;;;;;;3.47;1.00;;;11.50;99.90;;;;;;6098756;23;20042;-87
2023/03/15 12:13:04;;;;;;;6.00;0.90;;;11.30;99.90;;;;;;6072278;23;20053;-87
2023/03/15 12:15:29;;;;;;;5.07;0.70;;;11.80;99.90;;;;;;6072731;23;20018;-87
2023/03/15 12:17:57;;;;;;;7.18;1.48;;;11.50;99.90;;;;;;6074248;23;20462;-87
2023/03/15 12:20:42;;;;;;;5.20;0.90;;;11.60;99.90;;;;;;6074844;23;20465;-87
2023/03/15 12:23:27;;;;;;;12.35;1.27;;;11.40;99.90;;;;;;6074796;23;20061;-87
2023/03/15 12:25:57;;;;;;;4.75;0.60;;;11.10;99.90;;;;;;6075014;23;20106;-88
2023/03/15 12:28:27;;;;;;;6.57;1.05;;;11.50;99.90;;;;;;6098732;23;20607;-87
2023/03/15 12:30:57;;;;;;;6.15;0.55;;;11.50;99.90;;;;;;6097919;23;20446;-87
2023/03/15 12:33:25;;;;;;;5.15;1.05;;;11.50;99.90;;;;;;6099227;23;20026;-88
2023/03/15 12:35:59;;;;;;;6.50;0.90;;;12.00;99.90;;;;;;6074104;23;20021;-88
2023/03/15 12:38:30;;;;;;;6.70;0.70;;;11.70;99.90;;;;;;6074039;23;20025;-88
2023/03/15 12:40:57;;;;;;;6.45;0.90;;;11.80;99.90;;;;;;6122097;23;20021;-89
2023/03/15 12:43:35;;;;;;;5.78;0.70;;;12.00;99.90;;;;;;6073958;23;20014;-88
2023/03/15 12:46:00;;;;;;;7.50;1.35;;;11.70;98.90;;;;;;6096889;23;20332;-88
2023/03/15 12:48:27;;;;;;;5.22;0.60;;;11.80;99.90;;;;;;6098612;23;20024;-89
2023/03/15 12:50:59;;;;;;;2.72;0.60;;;12.40;99.80;;;;;;6121527;23;20010;-88
2023/03/15 12:53:35;;;;;;;3.83;0.75;;;11.70;98.90;;;;;;6074227;23;20010;-88
2023/03/15 12:56:16;;;;;;;3.05;0.50;;;11.50;98.50;;;;;;6096550;23;20014;-88
2023/03/15 12:58:45;;;;;;;5.88;0.70;;;11.40;99.10;;;;;;6096829;23;20093;-88
2023/03/15 13:01:15;;;;;;;7.72;0.82;;;11.50;99.90;;;;;;6097874;23;20010;-88
2023/03/15 13:03:45;;;;;;;5.90;1.08;;;11.70;99.90;;;;;;6123241;23;20072;-89
2023/03/15 13:06:31;;;;;;;3.88;0.65;;;11.70;99.50;;;;;;6074527;23;20018;-89
2023/03/15 13:08:57;;;;;;;7.32;0.93;;;11.60;99.30;;;;;;6097057;23;20097;-88
2023/03/15 13:11:38;;;;;;;3.88;0.50;;;11.40;99.20;;;;;;6073876;23;20439;-88
2023/03/15 13:14:32;;;;;;;3.53;0.77;;;11.40;99.60;;;;;;6097290;23;20018;-89
2023/03/15 13:17:22;;;;;;;5.30;0.75;;;11.50;99.90;;;;;;6124594;23;20014;-89
2023/03/15 13:20:21;;;;;;;5.00;1.02;;;11.60;99.90;;;;;;6097512;23;20010;-87
2023/03/15 13:23:03;;;;;;;5.72;0.70;;;11.50;99.90;;;;;;6079177;23;20029;-89
2023/03/15 13:25:46;;;;;;;5.60;0.90;;;11.30;99.90;;;;;;6074328;23;20014;-88
2023/03/15 13:28:36;;;;;;;7.05;0.65;;;11.20;99.90;;;;;;6097337;23;20026;-88
2023/03/15 13:31:18;;;;;;;5.13;0.95;;;11.30;99.90;;;;;;6072892;23;20350;-88
2023/03/15 13:33:51;;;;;;;2.53;0.60;;;11.30;99.90;;;;;;6073811;23;20017;-88
2023/03/15 13:36:22;;;;;;;7.38;1.27;;;11.40;99.90;;;;;;6097651;23;20032;-89
2023/03/15 13:38:56;;;;;;;6.90;0.70;;;11.40;99.80;;;;;;6073651;23;20046;-89
2023/03/15 13:41:21;;;;;;;5.65;1.45;;;11.50;99.90;;;;;;6073174;23;20010;-89
2023/03/15 13:43:48;;;;;;;5.85;1.25;;;11.50;99.10;;;;;;6097398;23;20057;-89
2023/03/15 13:46:17;;;;;;;7.07;1.10;;;11.30;99.90;;;;;;6072197;23;20010;-88
2023/03/15 13:48:48;;;;;;;3.70;0.63;;;11.30;99.90;;;;;;6074768;23;20454;-88
2023/03/15 13:51:26;;;;;;;3.17;0.50;;;11.30;99.80;;;;;;6075761;23;20060;-89
2023/03/15 13:54:33;;;;;;;4.25;0.75;;;11.30;99.90;;;;;;6077168;23;20093;-89
2023/03/15 13:58:08;;;;;;;6.55;0.80;;;11.30;98.90;;;;;;6063715;23;20021;-89
2023/03/15 14:01:48;;;;;;;7.15;0.70;;;11.40;98.40;;;;;;6064131;23;20010;-89
2023/03/15 14:56:41;;;;;;;4.78;0.70;;;9.70;99.60;;;;;;6125412;23;20084;-87
2023/03/15 14:59:23;;;;;;;3.28;0.70;;;9.60;99.90;;;;;;6074559;23;20025;-88
2023/03/15 15:01:54;;;;;;;3.80;0.45;;;9.50;97.70;;;;;;6074911;23;20014;-88
2023/03/15 15:04:20;;;;;;;6.15;1.15;;;9.40;98.90;;;;;;6074607;23;20010;-88
2023/03/15 15:06:50;;;;;;;7.47;1.35;;;9.30;99.30;;;;;;6075018;23;20093;-88
2023/03/15 15:09:21;;;;;;;4.55;0.93;;;9.10;99.90;;;;;;6124169;23;20022;-88
2023/03/15 15:11:51;;;;;;;4.60;1.55;;;9.10;99.90;;;;;;6074371;23;20020;-88
2023/03/15 15:14:17;;;;;;;6.05;0.40;;;8.60;99.90;;;;;;6099495;23;20017;-89
2023/03/15 15:16:45;;;;;;;3.03;0.50;;;8.70;99.60;;;;;;6097753;23;20021;-88
2023/03/15 15:19:12;;;;;;;4.43;0.63;;;9.20;99.80;;;;;;6099377;23;20009;-88
2023/03/15 15:21:38;;;;;;;5.00;1.00;;;9.20;99.90;;;;;;6097759;23;20081;-87
2023/03/15 15:24:10;;;;;;;4.35;0.70;;;9.40;99.90;;;;;;6074384;23;20412;-88
2023/03/15 15:26:36;;;;;;;2.47;0.55;;;8.70;99.90;;;;;;6099513;23;20025;-90
2023/03/15 15:29:01;;;;;;;4.57;0.88;;;8.60;99.90;;;;;;6075914;23;20010;-90
2023/03/15 15:31:40;;;;;;;5.25;0.70;;;9.30;99.90;;;;;;6099068;23;20022;-91
2023/03/15 15:34:07;;;;;;;4.70;0.55;;;8.60;99.90;;;;;;6075202;23;20010;-90
2023/03/15 15:36:39;;;;;;;2.17;0.47;;;8.60;99.90;;;;;;6075462;23;20014;-90
2023/03/15 15:39:34;;;;;;;3.35;0.40;;;8.60;99.90;;;;;;6076082;23;20014;-90
2023/03/15 15:42:09;;;;;;;9.80;1.90;;;9.50;99.90;;;;;;6065075;23;20009;-91
2023/03/15 15:44:37;;;;;;;6.72;0.50;;;8.60;99.50;;;;;;6074718;23;20327;-90
2023/03/15 15:47:35;;;;;;;4.10;0.45;;;8.50;99.50;;;;;;6073910;23;20060;-92
2023/03/15 17:03:31;;;;;;;4.68;0.85;;;7.10;99.90;;;;;;6149191;23;20041;-85
2023/03/15 17:14:20;;;;;;;4.03;0.65;;;6.90;99.90;;;;;;6032859;23;20049;-86
2023/03/15 17:16:55;;;;;;;5.50;0.60;;;6.80;99.90;;;;;;6034344;23;20015;-88
2023/03/15 17:19:26;;;;;;;7.10;0.87;;;6.60;99.90;;;;;;5960855;23;20046;-87
2023/03/15 17:21:52;;;;;;;6.80;1.20;;;6.60;99.90;;;;;;5983871;23;20255;-87
2023/03/15 17:24:18;;;;;;;4.15;0.50;;;6.50;99.90;;;;;;6078512;23;20128;-83
2023/03/15 17:26:44;;;;;;;5.88;1.13;;;6.40;99.90;;;;;;6123103;23;20013;-85
2023/03/15 17:29:14;;;;;;;3.38;1.10;;;6.40;99.90;;;;;;6125361;23;20084;-83
2023/03/15 17:32:45;;;;;;;5.55;0.80;;;6.30;99.90;;;;;;6099402;23;20010;-85
2023/03/15 18:02:01;;;;;;;5.70;0.60;;;5.30;99.90;;;;;;6069140;23;20013;-90
2023/03/15 18:12:25;;;;;;;3.22;0.50;;;5.00;99.90;;;;;;6062174;23;20101;-90
2023/03/15 18:15:07;;;;;;;6.85;0.75;;;4.80;99.90;;;;;;6106777;23;20021;-91
2023/03/15 18:17:32;;;;;;;2.17;0.30;;;4.70;99.90;;;;;;6107279;23;20092;-91
2023/03/15 18:19:58;;;;;;;2.83;0.50;;;5.20;99.90;;;;;;6106272;23;20461;-91
2023/03/15 18:22:23;;;;;;;2.17;0.43;;;4.60;99.90;;;;;;6105183;23;20010;-91
2023/03/15 18:24:52;;;;;;;1.85;0.50;;;4.50;99.90;;;;;;6104449;23;20602;-91
2023/03/15 18:27:21;;;;;;;3.15;0.65;;;4.40;99.90;;;;;;6129051;23;20014;-92
2023/03/15 18:29:46;;;;;;;3.20;0.50;;;4.30;99.90;;;;;;6104707;23;20013;-91
2023/03/15 18:32:15;;;;;;;3.42;0.30;;;4.30;99.90;;;;;;6106254;23;20010;-92
2023/03/15 18:34:41;;;;;;;5.70;0.45;;;4.30;99.90;;;;;;6105544;23;20017;-90
2023/03/15 18:37:10;;;;;;;4.97;0.82;;;4.90;99.90;;;;;;6105683;23;20053;-91
2023/03/15 18:39:37;;;;;;;5.85;0.80;;;4.00;99.90;;;;;;6105704;23;20025;-91
2023/03/15 18:42:06;;;;;;;4.03;0.80;;;4.00;99.90;;;;;;6129848;23;20024;-89
2023/03/15 18:44:31;;;;;;;6.65;0.82;;;4.00;99.90;;;;;;6153540;23;20025;-87
2023/03/15 18:46:57;;;;;;;4.60;0.60;;;4.00;99.90;;;;;;6102558;23;20017;-88
2023/03/15 18:49:45;;;;;;;5.60;0.85;;;4.00;99.90;;;;;;6100108;23;20358;-88
2023/03/15 18:52:28;;;;;;;5.70;0.70;;;4.00;99.90;;;;;;6103655;23;20777;-90
2023/03/15 19:02:47;;;;;;;3.65;0.75;;;3.90;99.90;;;;;;6152583;23;20173;-90
2023/03/15 19:05:16;;;;;;;4.43;1.05;;;3.90;99.90;;;;;;6133194;23;20021;-85
2023/03/15 19:07:44;;;;;;;5.10;0.68;;;3.80;99.90;;;;;;6100801;23;20064;-87
2023/03/15 19:10:20;;;;;;;3.25;0.75;;;3.60;99.90;;;;;;6103225;23;20025;-89
2023/03/15 19:12:56;;;;;;;5.20;1.20;;;3.60;99.90;;;;;;6103445;23;20021;-89
2023/03/15 19:15:22;;;;;;;;;;;3.60;99.90;;;;;;6103407;23;20014;-88
2023/03/15 19:17:57;;;;;;;3.20;0.70;;;3.50;99.90;;;;;;6102128;23;19913;-86
2023/03/15 19:20:28;;;;;;;6.35;0.52;;;3.50;99.90;;;;;;6126586;23;20014;-87
2023/03/15 19:22:54;;;;;;;1.38;0.40;;;3.40;99.90;;;;;;6102642;23;20036;-88
2023/03/15 19:25:20;;;;;;;4.00;0.90;;;4.60;99.90;;;;;;6078583;23;20085;-88
2023/03/15 19:27:46;;;;;;;3.38;0.50;;;3.40;99.90;;;;;;6103264;23;20017;-88
2023/03/15 19:30:25;;;;;;;3.67;0.43;;;3.30;99.90;;;;;;6102621;23;20146;-89
2023/03/15 19:32:54;;;;;;;1.85;0.50;;;3.30;99.90;;;;;;6103136;23;20014;-86
2023/03/15 19:35:26;;;;;;;8.27;0.73;;;3.20;99.90;;;;;;6101625;23;20018;-87
2023/03/15 19:37:52;;;;;;;6.30;0.82;;;3.00;99.90;;;;;;6125815;23;20014;-89
2023/03/15 19:40:19;;;;;;;3.63;0.50;;;3.20;99.90;;;;;;6126692;23;20014;-89
2023/03/15 19:42:45;;;;;;;2.10;0.50;;;3.20;99.90;;;;;;6102044;23;20017;-89
2023/03/15 19:45:12;;;;;;;5.03;0.95;;;3.60;99.90;;;;;;6102597;23;20017;-89
2023/03/15 19:47:38;;;;;;;3.47;0.90;;;3.00;99.90;;;;;;6126019;23;20017;-89
2023/03/15 19:50:06;;;;;;;4.22;0.70;;;3.00;99.90;;;;;;6102106;23;20407;-89
2023/03/15 19:52:32;;;;;;;2.67;0.50;;;3.10;99.90;;;;;;6126335;23;20049;-89
2023/03/15 19:55:02;;;;;;;4.32;0.70;;;3.00;99.90;;;;;;6127415;23;20333;-89
2023/03/15 19:57:28;;;;;;;2.60;0.60;;;3.00;99.90;;;;;;6127066;23;20014;-88
2023/03/15 19:59:56;;;;;;;2.33;0.70;;;3.40;99.90;;;;;;6127467;23;20009;-90
2023/03/15 20:02:22;;;;;;;3.80;0.50;;;2.90;99.90;;;;;;6101432;23;20464;-90
2023/03/15 20:04:47;;;;;;;2.88;1.15;;;2.90;99.90;;;;;;6102490;23;20014;-89
2023/03/15 20:07:13;;;;;;;4.28;0.85;;;2.90;99.90;;;;;;6127105;23;20009;-89
2023/03/15 20:09:40;;;;;;;4.00;0.88;;;2.80;99.90;;;;;;6101821;23;20105;-89
2023/03/15 20:12:08;;;;;;;4.13;0.90;;;2.90;99.90;;;;;;6101845;23;20069;-89
2023/03/15 20:14:34;;;;;;;3.45;0.73;;;2.80;99.90;;;;;;6126307;23;20088;-88
2023/03/15 20:17:00;;;;;;;4.15;0.50;;;2.80;99.90;;;;;;6127310;23;20047;-89
2023/03/15 20:19:26;;;;;;;5.20;0.55;;;2.80;99.90;;;;;;6101560;23;20101;-89
2023/03/15 20:21:52;;;;;;;5.72;1.00;;;2.70;99.90;;;;;;6101987;23;20053;-90
2023/03/15 20:24:18;;;;;;;2.25;0.60;;;3.60;99.90;;;;;;6126985;23;20017;-90
2023/03/15 20:26:50;;;;;;;3.17;0.80;;;3.60;99.90;;;;;;6103179;23;20020;-90
2023/03/15 20:29:16;;;;;;;2.25;0.75;;;2.60;99.90;;;;;;6127072;23;20407;-90
2023/03/15 20:31:42;;;;;;;4.82;0.60;;;2.50;99.90;;;;;;6103019;23;20084;-90
2023/03/15 20:34:08;;;;;;;3.40;0.70;;;2.50;99.90;;;;;;6102023;23;20021;-90
2023/03/15 20:36:35;;;;;;;5.60;1.20;;;2.50;99.90;;;;;;6126709;23;20036;-90
2023/03/15 20:39:00;;;;;;;4.07;1.17;;;2.50;99.90;;;;;;6126351;23;20017;-91
2023/03/15 20:41:27;;;;;;;4.10;0.80;;;3.40;99.90;;;;;;6126684;23;20338;-90
2023/03/15 20:43:52;;;;;;;5.78;1.30;;;2.60;99.90;;;;;;6127469;23;20084;-90
2023/03/15 20:46:21;;;;;;;7.40;1.70;;;2.60;99.90;;;;;;6127911;23;20406;-89
2023/03/15 20:48:47;;;;;;;7.32;1.25;;;2.70;99.90;;;;;;6127947;23;20019;-90
2023/03/15 20:51:13;;;;;;;8.60;1.45;;;2.70;99.90;;;;;;6102388;23;20024;-89
2023/03/15 20:53:43;;;;;;;9.23;1.20;;;2.70;99.90;;;;;;6103318;23;20013;-91
2023/03/15 20:56:09;;;;;;;13.35;1.55;;;3.20;99.90;;;;;;6103475;23;20010;-89
2023/03/15 20:58:35;;;;;;;7.07;1.23;;;2.80;99.90;;;;;;6103013;23;20013;-90
2023/03/15 21:01:07;;;;;;;6.07;2.00;;;2.80;99.90;;;;;;6102786;23;20454;-90
2023/03/15 21:03:34;;;;;;;10.80;1.60;;;2.90;99.90;;;;;;6127327;23;20014;-89
2023/03/15 21:06:04;;;;;;;4.95;1.40;;;3.00;99.90;;;;;;6103126;23;20013;-89
2023/03/15 21:08:30;;;;;;;5.95;1.88;;;3.00;99.90;;;;;;6127494;23;20028;-89
2023/03/15 21:10:56;;;;;;;7.10;1.70;;;3.10;99.90;;;;;;6127515;23;20023;-88
2023/03/15 21:13:22;;;;;;;9.73;1.83;;;3.10;99.90;;;;;;6102591;23;20096;-89
2023/03/15 21:15:52;;;;;;;5.78;1.02;;;3.20;99.90;;;;;;6102910;23;20072;-89
2023/03/15 21:18:18;;;;;;;6.38;2.35;;;3.70;99.90;;;;;;6126914;23;20442;-89
2023/03/15 21:20:44;;;;;;;7.38;2.13;;;3.70;99.90;;;;;;6126511;23;20477;-89
2023/03/15 21:23:10;;;;;;;8.52;1.42;;;3.30;99.90;;;;;;6126909;23;20013;-90
2023/03/15 21:25:37;;;;;;;7.78;1.50;;;3.30;99.90;;;;;;6101031;23;20029;-90